sensor_id;sensor_type;location;lat;lon;timestamp;P1;durP1;ratioP1;P2;durP2;ratioP2
64854;SDS011;51321;50.428;8.378;2022-12-10T00:00:05;9.82;;;7.80;;
64854;SDS011;51321;50.428;8.378;2022-12-10T00:02:29;13.25;;;7.75;;
64854;SDS011;51321;50.428;8.378;2022-12-10T00:04:51;10.35;;;7.82;;
64854;SDS011;51321;50.428;8.378;2022-12-10T00:07:13;11.48;;;7.78;;
64854;SDS011;51321;50.428;8.378;2022-12-10T00:09:35;10.30;;;7.00;;
64854;SDS011;51321;50.428;8.378;2022-12-10T00:11:57;8.25;;;6.72;;
64854;SDS011;51321;50.428;8.378;2022-12-10T00:14:20;9.15;;;7.10;;
64854;SDS011;51321;50.428;8.378;2022-12-10T00:16:42;11.57;;;8.32;;
64854;SDS011;51321;50.428;8.378;2022-12-10T00:19:05;11.07;;;8.57;;
64854;SDS011;51321;50.428;8.378;2022-12-10T00:21:28;10.93;;;7.30;;
64854;SDS011;51321;50.428;8.378;2022-12-10T00:23:51;10.95;;;7.90;;
64854;SDS011;51321;50.428;8.378;2022-12-10T00:26:14;10.82;;;7.47;;
64854;SDS011;51321;50.428;8.378;2022-12-10T00:28:38;10.95;;;7.57;;
64854;SDS011;51321;50.428;8.378;2022-12-10T00:31:02;12.43;;;8.40;;
64854;SDS011;51321;50.428;8.378;2022-12-10T00:33:25;10.43;;;8.13;;
64854;SDS011;51321;50.428;8.378;2022-12-10T00:35:50;11.07;;;7.40;;
64854;SDS011;51321;50.428;8.378;2022-12-10T00:38:12;11.35;;;8.45;;
64854;SDS011;51321;50.428;8.378;2022-12-10T00:40:34;12.18;;;9.00;;
64854;SDS011;51321;50.428;8.378;2022-12-10T00:42:56;10.98;;;8.00;;
64854;SDS011;51321;50.428;8.378;2022-12-10T00:45:18;12.15;;;8.32;;
64854;SDS011;51321;50.428;8.378;2022-12-10T00:47:40;11.40;;;7.85;;
64854;SDS011;51321;50.428;8.378;2022-12-10T00:50:02;11.93;;;7.70;;
64854;SDS011;51321;50.428;8.378;2022-12-10T00:52:26;11.90;;;7.85;;
64854;SDS011;51321;50.428;8.378;2022-12-10T00:54:48;8.43;;;6.88;;
64854;SDS011;51321;50.428;8.378;2022-12-10T00:57:10;11.18;;;7.70;;
64854;SDS011;51321;50.428;8.378;2022-12-10T00:59:32;12.10;;;7.93;;
64854;SDS011;51321;50.428;8.378;2022-12-10T01:01:54;10.38;;;8.15;;
64854;SDS011;51321;50.428;8.378;2022-12-10T01:04:17;13.25;;;8.48;;
64854;SDS011;51321;50.428;8.378;2022-12-10T01:09:04;11.15;;;7.57;;
64854;SDS011;51321;50.428;8.378;2022-12-10T01:11:30;9.68;;;7.47;;
64854;SDS011;51321;50.428;8.378;2022-12-10T01:13:54;12.00;;;8.05;;
64854;SDS011;51321;50.428;8.378;2022-12-10T01:16:17;10.30;;;7.68;;
64854;SDS011;51321;50.428;8.378;2022-12-10T01:18:41;9.35;;;7.07;;
64854;SDS011;51321;50.428;8.378;2022-12-10T01:21:04;10.85;;;7.57;;
64854;SDS011;51321;50.428;8.378;2022-12-10T01:23:28;11.23;;;8.07;;
64854;SDS011;51321;50.428;8.378;2022-12-10T01:25:58;11.20;;;7.70;;
64854;SDS011;51321;50.428;8.378;2022-12-10T01:28:22;12.32;;;8.55;;
64854;SDS011;51321;50.428;8.378;2022-12-10T01:30:44;10.95;;;7.93;;
64854;SDS011;51321;50.428;8.378;2022-12-10T01:33:06;11.50;;;7.93;;
64854;SDS011;51321;50.428;8.378;2022-12-10T01:35:28;11.80;;;9.10;;
64854;SDS011;51321;50.428;8.378;2022-12-10T01:37:50;9.98;;;7.65;;
64854;SDS011;51321;50.428;8.378;2022-12-10T01:40:12;11.55;;;7.45;;
64854;SDS011;51321;50.428;8.378;2022-12-10T01:42:36;8.68;;;6.75;;
64854;SDS011;51321;50.428;8.378;2022-12-10T01:44:59;10.27;;;7.13;;
64854;SDS011;51321;50.428;8.378;2022-12-10T01:47:30;12.27;;;7.70;;
64854;SDS011;51321;50.428;8.378;2022-12-10T01:49:53;10.40;;;7.22;;
64854;SDS011;51321;50.428;8.378;2022-12-10T01:52:15;10.32;;;7.07;;
64854;SDS011;51321;50.428;8.378;2022-12-10T01:54:38;9.10;;;6.43;;
64854;SDS011;51321;50.428;8.378;2022-12-10T01:57:03;9.13;;;6.85;;
64854;SDS011;51321;50.428;8.378;2022-12-10T01:59:29;9.30;;;6.38;;
64854;SDS011;51321;50.428;8.378;2022-12-10T02:01:54;8.98;;;6.53;;
64854;SDS011;51321;50.428;8.378;2022-12-10T02:04:31;9.07;;;7.03;;
64854;SDS011;51321;50.428;8.378;2022-12-10T02:07:05;10.00;;;7.88;;
64854;SDS011;51321;50.428;8.378;2022-12-10T02:09:34;8.00;;;6.15;;
64854;SDS011;51321;50.428;8.378;2022-12-10T02:12:02;8.82;;;6.72;;
64854;SDS011;51321;50.428;8.378;2022-12-10T02:14:36;11.30;;;7.28;;
64854;SDS011;51321;50.428;8.378;2022-12-10T02:17:06;11.50;;;8.07;;
64854;SDS011;51321;50.428;8.378;2022-12-10T02:19:42;11.02;;;8.35;;
64854;SDS011;51321;50.428;8.378;2022-12-10T02:22:14;10.02;;;7.82;;
64854;SDS011;51321;50.428;8.378;2022-12-10T02:24:38;10.60;;;7.95;;
64854;SDS011;51321;50.428;8.378;2022-12-10T02:27:04;10.98;;;7.68;;
64854;SDS011;51321;50.428;8.378;2022-12-10T02:29:34;13.63;;;8.95;;
64854;SDS011;51321;50.428;8.378;2022-12-10T02:31:59;12.50;;;8.27;;
64854;SDS011;51321;50.428;8.378;2022-12-10T02:34:27;10.60;;;7.72;;
64854;SDS011;51321;50.428;8.378;2022-12-10T02:36:52;14.77;;;8.85;;
64854;SDS011;51321;50.428;8.378;2022-12-10T02:39:17;9.73;;;7.20;;
64854;SDS011;51321;50.428;8.378;2022-12-10T02:41:47;10.85;;;7.28;;
64854;SDS011;51321;50.428;8.378;2022-12-10T02:44:14;11.70;;;7.05;;
64854;SDS011;51321;50.428;8.378;2022-12-10T02:46:40;9.77;;;7.22;;
64854;SDS011;51321;50.428;8.378;2022-12-10T02:49:06;11.90;;;8.43;;
64854;SDS011;51321;50.428;8.378;2022-12-10T02:51:30;11.07;;;7.90;;
64854;SDS011;51321;50.428;8.378;2022-12-10T02:53:58;10.82;;;7.90;;
64854;SDS011;51321;50.428;8.378;2022-12-10T02:56:24;11.07;;;7.65;;
64854;SDS011;51321;50.428;8.378;2022-12-10T02:58:56;10.40;;;8.20;;
64854;SDS011;51321;50.428;8.378;2022-12-10T03:01:27;11.38;;;7.93;;
64854;SDS011;51321;50.428;8.378;2022-12-10T03:04:04;10.68;;;8.18;;
64854;SDS011;51321;50.428;8.378;2022-12-10T03:06:33;9.75;;;7.97;;
64854;SDS011;51321;50.428;8.378;2022-12-10T03:09:01;9.48;;;7.85;;
64854;SDS011;51321;50.428;8.378;2022-12-10T03:11:27;11.88;;;7.65;;
64854;SDS011;51321;50.428;8.378;2022-12-10T03:13:53;13.50;;;7.60;;
64854;SDS011;51321;50.428;8.378;2022-12-10T03:16:18;10.45;;;7.05;;
64854;SDS011;51321;50.428;8.378;2022-12-10T03:18:42;10.13;;;7.75;;
64854;SDS011;51321;50.428;8.378;2022-12-10T03:21:07;10.45;;;7.05;;
64854;SDS011;51321;50.428;8.378;2022-12-10T03:23:31;8.75;;;7.15;;
64854;SDS011;51321;50.428;8.378;2022-12-10T03:25:56;9.38;;;6.82;;
64854;SDS011;51321;50.428;8.378;2022-12-10T03:28:20;9.13;;;6.88;;
64854;SDS011;51321;50.428;8.378;2022-12-10T03:30:44;8.43;;;7.15;;
64854;SDS011;51321;50.428;8.378;2022-12-10T03:33:08;9.98;;;7.75;;
64854;SDS011;51321;50.428;8.378;2022-12-10T03:37:54;8.65;;;7.10;;
64854;SDS011;51321;50.428;8.378;2022-12-10T03:40:18;8.95;;;6.85;;
64854;SDS011;51321;50.428;8.378;2022-12-10T03:42:42;9.55;;;7.68;;
64854;SDS011;51321;50.428;8.378;2022-12-10T03:45:06;10.65;;;7.60;;
64854;SDS011;51321;50.428;8.378;2022-12-10T03:47:29;8.48;;;6.65;;
64854;SDS011;51321;50.428;8.378;2022-12-10T03:49:51;9.40;;;6.30;;
64854;SDS011;51321;50.428;8.378;2022-12-10T03:52:13;11.40;;;7.47;;
64854;SDS011;51321;50.428;8.378;2022-12-10T03:56:59;10.05;;;7.25;;
64854;SDS011;51321;50.428;8.378;2022-12-10T03:59:21;9.85;;;7.25;;
64854;SDS011;51321;50.428;8.378;2022-12-10T04:01:43;13.48;;;9.35;;
64854;SDS011;51321;50.428;8.378;2022-12-10T04:04:05;11.25;;;9.10;;
64854;SDS011;51321;50.428;8.378;2022-12-10T04:06:28;13.48;;;9.73;;
64854;SDS011;51321;50.428;8.378;2022-12-10T04:08:51;13.23;;;10.13;;
64854;SDS011;51321;50.428;8.378;2022-12-10T04:11:15;11.77;;;9.50;;
64854;SDS011;51321;50.428;8.378;2022-12-10T04:13:38;13.30;;;9.65;;
64854;SDS011;51321;50.428;8.378;2022-12-10T04:16:19;11.50;;;9.27;;
64854;SDS011;51321;50.428;8.378;2022-12-10T04:18:48;12.35;;;8.35;;
64854;SDS011;51321;50.428;8.378;2022-12-10T04:21:10;11.15;;;8.52;;
64854;SDS011;51321;50.428;8.378;2022-12-10T04:23:50;11.02;;;7.72;;
64854;SDS011;51321;50.428;8.378;2022-12-10T04:26:27;11.15;;;8.63;;
64854;SDS011;51321;50.428;8.378;2022-12-10T04:29:07;8.27;;;6.88;;
64854;SDS011;51321;50.428;8.378;2022-12-10T04:31:30;9.32;;;6.70;;
64854;SDS011;51321;50.428;8.378;2022-12-10T04:33:52;8.82;;;6.95;;
64854;SDS011;51321;50.428;8.378;2022-12-10T04:36:14;8.93;;;7.32;;
64854;SDS011;51321;50.428;8.378;2022-12-10T04:38:36;10.60;;;7.38;;
64854;SDS011;51321;50.428;8.378;2022-12-10T04:40:58;13.20;;;9.35;;
64854;SDS011;51321;50.428;8.378;2022-12-10T04:43:21;10.25;;;7.10;;
64854;SDS011;51321;50.428;8.378;2022-12-10T04:45:43;9.88;;;7.70;;
64854;SDS011;51321;50.428;8.378;2022-12-10T04:50:28;10.80;;;8.35;;
64854;SDS011;51321;50.428;8.378;2022-12-10T04:52:50;11.43;;;9.00;;
64854;SDS011;51321;50.428;8.378;2022-12-10T04:55:13;12.15;;;8.43;;
64854;SDS011;51321;50.428;8.378;2022-12-10T04:57:37;9.27;;;7.35;;
64854;SDS011;51321;50.428;8.378;2022-12-10T05:00:01;12.40;;;8.25;;
64854;SDS011;51321;50.428;8.378;2022-12-10T05:02:24;11.68;;;8.40;;
64854;SDS011;51321;50.428;8.378;2022-12-10T05:04:47;10.68;;;8.15;;
64854;SDS011;51321;50.428;8.378;2022-12-10T05:07:10;12.40;;;8.40;;
64854;SDS011;51321;50.428;8.378;2022-12-10T05:09:33;12.63;;;8.73;;
64854;SDS011;51321;50.428;8.378;2022-12-10T05:11:55;13.48;;;8.65;;
64854;SDS011;51321;50.428;8.378;2022-12-10T05:14:17;11.68;;;8.45;;
64854;SDS011;51321;50.428;8.378;2022-12-10T05:16:41;12.90;;;9.13;;
64854;SDS011;51321;50.428;8.378;2022-12-10T05:19:03;10.18;;;8.80;;
64854;SDS011;51321;50.428;8.378;2022-12-10T05:21:26;11.05;;;8.63;;
64854;SDS011;51321;50.428;8.378;2022-12-10T05:24:10;11.88;;;8.70;;
64854;SDS011;51321;50.428;8.378;2022-12-10T05:26:31;26.38;;;16.77;;
64854;SDS011;51321;50.428;8.378;2022-12-10T05:28:54;24.63;;;16.95;;
64854;SDS011;51321;50.428;8.378;2022-12-10T05:31:18;14.25;;;11.77;;
64854;SDS011;51321;50.428;8.378;2022-12-10T05:33:43;14.75;;;11.38;;
64854;SDS011;51321;50.428;8.378;2022-12-10T05:36:05;10.85;;;8.68;;
64854;SDS011;51321;50.428;8.378;2022-12-10T05:38:29;13.88;;;10.68;;
64854;SDS011;51321;50.428;8.378;2022-12-10T05:40:52;9.13;;;7.85;;
64854;SDS011;51321;50.428;8.378;2022-12-10T05:43:14;11.20;;;8.55;;
64854;SDS011;51321;50.428;8.378;2022-12-10T05:45:36;9.68;;;8.25;;
64854;SDS011;51321;50.428;8.378;2022-12-10T05:47:58;9.63;;;8.15;;
64854;SDS011;51321;50.428;8.378;2022-12-10T05:50:22;9.30;;;7.68;;
64854;SDS011;51321;50.428;8.378;2022-12-10T05:52:44;10.43;;;8.13;;
64854;SDS011;51321;50.428;8.378;2022-12-10T05:55:06;9.68;;;8.20;;
64854;SDS011;51321;50.428;8.378;2022-12-10T05:57:29;10.43;;;7.93;;
64854;SDS011;51321;50.428;8.378;2022-12-10T05:59:51;10.32;;;8.05;;
64854;SDS011;51321;50.428;8.378;2022-12-10T06:02:13;10.00;;;7.63;;
64854;SDS011;51321;50.428;8.378;2022-12-10T06:04:35;9.40;;;7.05;;
64854;SDS011;51321;50.428;8.378;2022-12-10T06:06:59;11.23;;;7.97;;
64854;SDS011;51321;50.428;8.378;2022-12-10T06:09:21;10.95;;;8.15;;
64854;SDS011;51321;50.428;8.378;2022-12-10T06:11:43;10.98;;;8.75;;
64854;SDS011;51321;50.428;8.378;2022-12-10T06:14:05;14.95;;;9.63;;
64854;SDS011;51321;50.428;8.378;2022-12-10T06:16:27;11.13;;;8.52;;
64854;SDS011;51321;50.428;8.378;2022-12-10T06:18:50;9.32;;;7.65;;
64854;SDS011;51321;50.428;8.378;2022-12-10T06:21:12;10.27;;;7.93;;
64854;SDS011;51321;50.428;8.378;2022-12-10T06:23:37;9.57;;;7.90;;
64854;SDS011;51321;50.428;8.378;2022-12-10T06:26:02;10.82;;;8.25;;
64854;SDS011;51321;50.428;8.378;2022-12-10T06:28:25;12.00;;;8.45;;
64854;SDS011;51321;50.428;8.378;2022-12-10T06:30:47;9.50;;;7.65;;
64854;SDS011;51321;50.428;8.378;2022-12-10T06:33:09;10.75;;;8.55;;
64854;SDS011;51321;50.428;8.378;2022-12-10T06:35:31;11.45;;;8.38;;
64854;SDS011;51321;50.428;8.378;2022-12-10T06:37:53;10.52;;;8.30;;
64854;SDS011;51321;50.428;8.378;2022-12-10T06:40:17;9.23;;;7.60;;
64854;SDS011;51321;50.428;8.378;2022-12-10T06:42:40;9.60;;;7.90;;
64854;SDS011;51321;50.428;8.378;2022-12-10T06:45:02;10.88;;;8.65;;
64854;SDS011;51321;50.428;8.378;2022-12-10T06:49:47;14.27;;;8.30;;
64854;SDS011;51321;50.428;8.378;2022-12-10T06:52:10;12.02;;;8.95;;
64854;SDS011;51321;50.428;8.378;2022-12-10T06:54:32;10.55;;;8.68;;
64854;SDS011;51321;50.428;8.378;2022-12-10T06:56:55;13.02;;;9.52;;
64854;SDS011;51321;50.428;8.378;2022-12-10T06:59:18;12.18;;;9.70;;
64854;SDS011;51321;50.428;8.378;2022-12-10T07:01:40;12.95;;;9.45;;
64854;SDS011;51321;50.428;8.378;2022-12-10T07:04:02;11.63;;;9.35;;
64854;SDS011;51321;50.428;8.378;2022-12-10T07:06:25;14.82;;;11.13;;
64854;SDS011;51321;50.428;8.378;2022-12-10T07:08:48;35.53;;;22.48;;
64854;SDS011;51321;50.428;8.378;2022-12-10T07:11:10;20.10;;;13.93;;
64854;SDS011;51321;50.428;8.378;2022-12-10T07:13:35;23.67;;;17.02;;
64854;SDS011;51321;50.428;8.378;2022-12-10T07:15:58;21.02;;;14.88;;
64854;SDS011;51321;50.428;8.378;2022-12-10T07:18:21;17.98;;;11.70;;
64854;SDS011;51321;50.428;8.378;2022-12-10T07:20:43;13.45;;;10.30;;
64854;SDS011;51321;50.428;8.378;2022-12-10T07:23:05;14.55;;;10.40;;
64854;SDS011;51321;50.428;8.378;2022-12-10T07:25:27;12.82;;;10.38;;
64854;SDS011;51321;50.428;8.378;2022-12-10T07:27:50;14.25;;;10.20;;
64854;SDS011;51321;50.428;8.378;2022-12-10T07:30:14;10.85;;;9.05;;
64854;SDS011;51321;50.428;8.378;2022-12-10T07:32:36;12.38;;;10.18;;
64854;SDS011;51321;50.428;8.378;2022-12-10T07:34:58;13.85;;;10.23;;
64854;SDS011;51321;50.428;8.378;2022-12-10T07:37:20;14.38;;;10.18;;
64854;SDS011;51321;50.428;8.378;2022-12-10T07:39:42;12.05;;;9.40;;
64854;SDS011;51321;50.428;8.378;2022-12-10T07:44:31;15.07;;;10.52;;
64854;SDS011;51321;50.428;8.378;2022-12-10T07:46:55;14.57;;;10.63;;
64854;SDS011;51321;50.428;8.378;2022-12-10T07:49:17;13.07;;;10.45;;
64854;SDS011;51321;50.428;8.378;2022-12-10T07:51:43;14.32;;;10.57;;
64854;SDS011;51321;50.428;8.378;2022-12-10T07:54:06;16.17;;;11.82;;
64854;SDS011;51321;50.428;8.378;2022-12-10T07:58:50;13.27;;;9.52;;
64854;SDS011;51321;50.428;8.378;2022-12-10T08:01:14;16.33;;;9.95;;
64854;SDS011;51321;50.428;8.378;2022-12-10T08:03:39;16.85;;;10.75;;
64854;SDS011;51321;50.428;8.378;2022-12-10T08:06:02;16.55;;;11.13;;
64854;SDS011;51321;50.428;8.378;2022-12-10T08:08:25;14.40;;;9.85;;
64854;SDS011;51321;50.428;8.378;2022-12-10T08:10:48;24.77;;;10.70;;
64854;SDS011;51321;50.428;8.378;2022-12-10T08:13:09;20.88;;;10.90;;
64854;SDS011;51321;50.428;8.378;2022-12-10T08:15:31;29.63;;;12.90;;
64854;SDS011;51321;50.428;8.378;2022-12-10T09:49:57;19.08;;;13.00;;
64854;SDS011;51321;50.428;8.378;2022-12-10T09:52:26;17.95;;;12.27;;
64854;SDS011;51321;50.428;8.378;2022-12-10T09:54:56;18.00;;;12.70;;
64854;SDS011;51321;50.428;8.378;2022-12-10T09:57:22;17.33;;;13.00;;
64854;SDS011;51321;50.428;8.378;2022-12-10T09:59:48;17.83;;;12.10;;
64854;SDS011;51321;50.428;8.378;2022-12-10T10:02:16;16.30;;;10.93;;
64854;SDS011;51321;50.428;8.378;2022-12-10T10:04:43;17.77;;;11.48;;
64854;SDS011;51321;50.428;8.378;2022-12-10T10:07:06;20.13;;;10.80;;
64854;SDS011;51321;50.428;8.378;2022-12-10T10:09:34;17.65;;;11.70;;
64854;SDS011;51321;50.428;8.378;2022-12-10T10:12:01;15.15;;;10.40;;
64854;SDS011;51321;50.428;8.378;2022-12-10T10:14:24;13.90;;;9.65;;
64854;SDS011;51321;50.428;8.378;2022-12-10T10:16:51;14.95;;;10.70;;
64854;SDS011;51321;50.428;8.378;2022-12-10T10:19:19;13.25;;;10.23;;
64854;SDS011;51321;50.428;8.378;2022-12-10T10:21:46;17.08;;;11.63;;
64854;SDS011;51321;50.428;8.378;2022-12-10T10:24:13;14.57;;;11.02;;
64854;SDS011;51321;50.428;8.378;2022-12-10T10:26:37;17.08;;;10.98;;
64854;SDS011;51321;50.428;8.378;2022-12-10T10:29:02;14.98;;;11.13;;
64854;SDS011;51321;50.428;8.378;2022-12-10T10:31:29;14.48;;;10.52;;
64854;SDS011;51321;50.428;8.378;2022-12-10T10:33:53;14.70;;;10.48;;
64854;SDS011;51321;50.428;8.378;2022-12-10T10:36:18;15.35;;;10.40;;
64854;SDS011;51321;50.428;8.378;2022-12-10T10:38:47;12.35;;;10.00;;
64854;SDS011;51321;50.428;8.378;2022-12-10T10:41:11;11.70;;;9.13;;
64854;SDS011;51321;50.428;8.378;2022-12-10T10:43:39;12.43;;;9.18;;
64854;SDS011;51321;50.428;8.378;2022-12-10T10:46:36;12.20;;;9.48;;
64854;SDS011;51321;50.428;8.378;2022-12-10T10:49:17;11.35;;;8.70;;
64854;SDS011;51321;50.428;8.378;2022-12-10T10:51:52;13.85;;;9.25;;
64854;SDS011;51321;50.428;8.378;2022-12-10T10:54:30;15.65;;;11.38;;
64854;SDS011;51321;50.428;8.378;2022-12-10T10:57:00;13.68;;;9.48;;
64854;SDS011;51321;50.428;8.378;2022-12-10T10:59:29;12.90;;;10.00;;
64854;SDS011;51321;50.428;8.378;2022-12-10T11:01:55;11.85;;;8.68;;
64854;SDS011;51321;50.428;8.378;2022-12-10T11:04:24;9.25;;;7.75;;
64854;SDS011;51321;50.428;8.378;2022-12-10T11:06:52;8.50;;;6.95;;
64854;SDS011;51321;50.428;8.378;2022-12-10T11:09:18;8.23;;;6.93;;
64854;SDS011;51321;50.428;8.378;2022-12-10T11:11:43;8.60;;;5.82;;
64854;SDS011;51321;50.428;8.378;2022-12-10T11:14:22;9.02;;;6.45;;
64854;SDS011;51321;50.428;8.378;2022-12-10T11:17:02;7.03;;;5.55;;
64854;SDS011;51321;50.428;8.378;2022-12-10T11:21:04;9.48;;;7.38;;
64854;SDS011;51321;50.428;8.378;2022-12-10T11:26:01;8.52;;;6.50;;
64854;SDS011;51321;50.428;8.378;2022-12-10T11:28:33;7.15;;;5.45;;
64854;SDS011;51321;50.428;8.378;2022-12-10T11:31:11;10.32;;;8.18;;
64854;SDS011;51321;50.428;8.378;2022-12-10T11:33:44;10.52;;;7.80;;
64854;SDS011;51321;50.428;8.378;2022-12-10T11:38:47;9.68;;;7.10;;
64854;SDS011;51321;50.428;8.378;2022-12-10T11:41:17;10.27;;;7.68;;
64854;SDS011;51321;50.428;8.378;2022-12-10T11:43:50;9.35;;;7.05;;
64854;SDS011;51321;50.428;8.378;2022-12-10T11:46:36;7.10;;;5.82;;
64854;SDS011;51321;50.428;8.378;2022-12-10T11:49:16;8.23;;;6.45;;
64854;SDS011;51321;50.428;8.378;2022-12-10T11:51:45;9.18;;;7.20;;
64854;SDS011;51321;50.428;8.378;2022-12-10T11:54:32;10.25;;;7.85;;
64854;SDS011;51321;50.428;8.378;2022-12-10T11:57:07;7.55;;;6.22;;
64854;SDS011;51321;50.428;8.378;2022-12-10T11:59:36;8.25;;;6.57;;
64854;SDS011;51321;50.428;8.378;2022-12-10T12:02:16;8.88;;;6.63;;
64854;SDS011;51321;50.428;8.378;2022-12-10T12:04:57;7.95;;;5.95;;
64854;SDS011;51321;50.428;8.378;2022-12-10T12:07:40;8.82;;;6.63;;
64854;SDS011;51321;50.428;8.378;2022-12-10T12:13:04;8.43;;;6.32;;
64854;SDS011;51321;50.428;8.378;2022-12-10T12:15:31;7.28;;;6.30;;
64854;SDS011;51321;50.428;8.378;2022-12-10T12:20:52;74.10;;;43.13;;
64854;SDS011;51321;50.428;8.378;2022-12-10T12:23:23;18.33;;;13.95;;
64854;SDS011;51321;50.428;8.378;2022-12-10T12:25:51;8.10;;;6.70;;
64854;SDS011;51321;50.428;8.378;2022-12-10T12:28:19;7.95;;;6.68;;
64854;SDS011;51321;50.428;8.378;2022-12-10T12:30:43;9.35;;;7.03;;
64854;SDS011;51321;50.428;8.378;2022-12-10T12:33:10;8.98;;;7.45;;
64854;SDS011;51321;50.428;8.378;2022-12-10T12:35:38;6.55;;;5.80;;
64854;SDS011;51321;50.428;8.378;2022-12-10T12:38:06;6.38;;;5.70;;
64854;SDS011;51321;50.428;8.378;2022-12-10T12:40:52;8.50;;;5.82;;
64854;SDS011;51321;50.428;8.378;2022-12-10T12:43:19;7.07;;;5.80;;
64854;SDS011;51321;50.428;8.378;2022-12-10T12:45:46;9.05;;;6.93;;
64854;SDS011;51321;50.428;8.378;2022-12-10T12:48:14;9.10;;;7.28;;
64854;SDS011;51321;50.428;8.378;2022-12-10T12:50:43;10.23;;;7.38;;
64854;SDS011;51321;50.428;8.378;2022-12-10T12:53:11;11.38;;;7.95;;
64854;SDS011;51321;50.428;8.378;2022-12-10T12:55:36;12.65;;;8.02;;
64854;SDS011;51321;50.428;8.378;2022-12-10T12:58:20;10.82;;;8.13;;
64854;SDS011;51321;50.428;8.378;2022-12-10T13:00:52;11.02;;;7.93;;
64854;SDS011;51321;50.428;8.378;2022-12-10T13:03:20;10.48;;;7.70;;
64854;SDS011;51321;50.428;8.378;2022-12-10T13:05:51;11.50;;;7.82;;
64854;SDS011;51321;50.428;8.378;2022-12-10T13:08:28;9.32;;;6.55;;
64854;SDS011;51321;50.428;8.378;2022-12-10T13:10:51;12.02;;;7.55;;
64854;SDS011;51321;50.428;8.378;2022-12-10T13:13:19;8.50;;;6.75;;
64854;SDS011;51321;50.428;8.378;2022-12-10T13:15:46;9.15;;;7.30;;
64854;SDS011;51321;50.428;8.378;2022-12-10T13:18:20;8.05;;;6.55;;
64854;SDS011;51321;50.428;8.378;2022-12-10T13:21:15;8.18;;;6.85;;
64854;SDS011;51321;50.428;8.378;2022-12-10T13:23:46;9.25;;;7.60;;
64854;SDS011;51321;50.428;8.378;2022-12-10T13:26:21;8.73;;;7.43;;
64854;SDS011;51321;50.428;8.378;2022-12-10T13:28:49;9.40;;;7.35;;
64854;SDS011;51321;50.428;8.378;2022-12-10T13:31:17;8.07;;;6.95;;
64854;SDS011;51321;50.428;8.378;2022-12-10T13:33:46;8.35;;;7.43;;
64854;SDS011;51321;50.428;8.378;2022-12-10T13:36:11;11.05;;;7.35;;
64854;SDS011;51321;50.428;8.378;2022-12-10T13:38:34;10.25;;;8.05;;
64854;SDS011;51321;50.428;8.378;2022-12-10T13:41:04;10.85;;;8.80;;
64854;SDS011;51321;50.428;8.378;2022-12-10T13:43:53;11.52;;;7.05;;
64854;SDS011;51321;50.428;8.378;2022-12-10T13:46:34;9.05;;;7.63;;
64854;SDS011;51321;50.428;8.378;2022-12-10T13:49:15;12.13;;;8.82;;
64854;SDS011;51321;50.428;8.378;2022-12-10T13:51:43;11.20;;;7.90;;
64854;SDS011;51321;50.428;8.378;2022-12-10T13:54:29;10.10;;;7.53;;
64854;SDS011;51321;50.428;8.378;2022-12-10T13:57:27;10.38;;;8.13;;
64854;SDS011;51321;50.428;8.378;2022-12-10T14:00:06;11.27;;;8.65;;
64854;SDS011;51321;50.428;8.378;2022-12-10T14:02:41;9.13;;;8.18;;
64854;SDS011;51321;50.428;8.378;2022-12-10T14:05:20;15.18;;;11.05;;
64854;SDS011;51321;50.428;8.378;2022-12-10T14:07:50;13.10;;;9.98;;
64854;SDS011;51321;50.428;8.378;2022-12-10T14:10:16;12.45;;;8.98;;
64854;SDS011;51321;50.428;8.378;2022-12-10T14:12:39;13.73;;;8.95;;
64854;SDS011;51321;50.428;8.378;2022-12-10T14:15:06;11.48;;;9.05;;
64854;SDS011;51321;50.428;8.378;2022-12-10T14:17:37;11.20;;;8.82;;
64854;SDS011;51321;50.428;8.378;2022-12-10T14:20:02;15.02;;;10.23;;
64854;SDS011;51321;50.428;8.378;2022-12-10T14:22:29;13.57;;;9.30;;
64854;SDS011;51321;50.428;8.378;2022-12-10T14:24:53;11.23;;;8.13;;
64854;SDS011;51321;50.428;8.378;2022-12-10T14:27:20;11.43;;;8.85;;
64854;SDS011;51321;50.428;8.378;2022-12-10T14:29:46;9.63;;;8.45;;
64854;SDS011;51321;50.428;8.378;2022-12-10T14:32:11;11.30;;;8.40;;
64854;SDS011;51321;50.428;8.378;2022-12-10T14:34:36;10.65;;;8.05;;
64854;SDS011;51321;50.428;8.378;2022-12-10T14:37:00;10.45;;;8.52;;
64854;SDS011;51321;50.428;8.378;2022-12-10T14:39:26;11.82;;;8.80;;
64854;SDS011;51321;50.428;8.378;2022-12-10T14:41:49;14.15;;;9.43;;
64854;SDS011;51321;50.428;8.378;2022-12-10T14:44:14;13.80;;;10.35;;
64854;SDS011;51321;50.428;8.378;2022-12-10T14:46:37;18.30;;;13.18;;
64854;SDS011;51321;50.428;8.378;2022-12-10T14:49:01;18.02;;;12.80;;
64854;SDS011;51321;50.428;8.378;2022-12-10T14:51:31;21.15;;;13.90;;
64854;SDS011;51321;50.428;8.378;2022-12-10T14:53:55;20.35;;;13.55;;
64854;SDS011;51321;50.428;8.378;2022-12-10T14:56:19;16.58;;;12.25;;
64854;SDS011;51321;50.428;8.378;2022-12-10T14:58:47;18.33;;;13.20;;
64854;SDS011;51321;50.428;8.378;2022-12-10T15:01:15;20.73;;;12.75;;
64854;SDS011;51321;50.428;8.378;2022-12-10T15:03:43;14.43;;;11.60;;
64854;SDS011;51321;50.428;8.378;2022-12-10T15:06:09;13.65;;;9.45;;
64854;SDS011;51321;50.428;8.378;2022-12-10T15:08:31;15.77;;;11.95;;
64854;SDS011;51321;50.428;8.378;2022-12-10T15:10:55;16.65;;;11.20;;
64854;SDS011;51321;50.428;8.378;2022-12-10T15:13:19;13.85;;;10.73;;
64854;SDS011;51321;50.428;8.378;2022-12-10T15:15:47;17.98;;;12.55;;
64854;SDS011;51321;50.428;8.378;2022-12-10T15:18:12;14.07;;;9.93;;
64854;SDS011;51321;50.428;8.378;2022-12-10T15:20:38;15.02;;;11.00;;
64854;SDS011;51321;50.428;8.378;2022-12-10T15:23:15;28.70;;;19.17;;
64854;SDS011;51321;50.428;8.378;2022-12-10T15:25:41;19.80;;;14.27;;
64854;SDS011;51321;50.428;8.378;2022-12-10T15:28:20;14.40;;;10.95;;
64854;SDS011;51321;50.428;8.378;2022-12-10T15:30:45;16.23;;;11.80;;
64854;SDS011;51321;50.428;8.378;2022-12-10T15:33:19;20.05;;;14.25;;
64854;SDS011;51321;50.428;8.378;2022-12-10T15:35:48;23.52;;;15.73;;
64854;SDS011;51321;50.428;8.378;2022-12-10T15:38:11;19.45;;;12.45;;
64854;SDS011;51321;50.428;8.378;2022-12-10T15:40:36;14.30;;;10.60;;
64854;SDS011;51321;50.428;8.378;2022-12-10T15:43:10;17.83;;;12.20;;
64854;SDS011;51321;50.428;8.378;2022-12-10T15:45:39;24.60;;;17.00;;
64854;SDS011;51321;50.428;8.378;2022-12-10T15:48:03;37.15;;;23.33;;
64854;SDS011;51321;50.428;8.378;2022-12-10T15:50:30;26.17;;;18.10;;
64854;SDS011;51321;50.428;8.378;2022-12-10T15:52:52;19.80;;;13.70;;
64854;SDS011;51321;50.428;8.378;2022-12-10T15:55:15;19.58;;;13.57;;
64854;SDS011;51321;50.428;8.378;2022-12-10T15:57:38;64.18;;;33.70;;
64854;SDS011;51321;50.428;8.378;2022-12-10T16:00:05;34.17;;;19.60;;
64854;SDS011;51321;50.428;8.378;2022-12-10T16:02:34;61.35;;;32.80;;
64854;SDS011;51321;50.428;8.378;2022-12-10T16:04:58;60.22;;;33.15;;
64854;SDS011;51321;50.428;8.378;2022-12-10T16:07:20;29.45;;;19.55;;
64854;SDS011;51321;50.428;8.378;2022-12-10T16:09:42;20.13;;;13.35;;
64854;SDS011;51321;50.428;8.378;2022-12-10T16:12:07;17.08;;;11.30;;
64854;SDS011;51321;50.428;8.378;2022-12-10T16:14:32;17.08;;;10.77;;
64854;SDS011;51321;50.428;8.378;2022-12-10T16:16:55;21.15;;;14.35;;
64854;SDS011;51321;50.428;8.378;2022-12-10T16:21:39;14.68;;;10.57;;
64854;SDS011;51321;50.428;8.378;2022-12-10T16:24:01;15.48;;;10.90;;
64854;SDS011;51321;50.428;8.378;2022-12-10T16:28:47;21.43;;;14.53;;
64854;SDS011;51321;50.428;8.378;2022-12-10T16:31:10;24.65;;;17.08;;
64854;SDS011;51321;50.428;8.378;2022-12-10T16:33:35;19.13;;;12.93;;